Airfield :







YOU CAN JOIN US ON...

 
LOGIN :

Register | Disclaimer

   EN    FR    IT 

 









Legend :    VFR   Marginal VFR   IFR   Intensive IFR   Very Intensive IFR
Visi :
Ceiling :
>= 8 km
>= 3000ft
5 to 8 km
1000 to 3000 ft
1500m to 5 km
500 to 1000 ft
800 to 1500m
200 to 500 ft
< 800m
< 200 ft
Symbols :   Thunderstorms  Fog  Heavy snow  Heavy precipitations  Wind > 20 kt






- Airport Elevation : 792 ft
- IATA code : YSC


CYSC - Sherbrooke

CURRENT METAR :
  • 010406Z AUTO 13016KT 9SM FEW140 BKN210 BKN250 13/10 A2943 RMK SLP975 DENSITY ALT 1300FT

EXPIRED METARs :
  • 010350Z AUTO 13012G20KT 9SM -RA FEW100 12/10 A2943 RMK SLP974 DENSITY ALT 1300FT
  • 010329Z AUTO 11009G19KT 080V150 9SM BKN100 BKN120 BKN250 12/11 A2943 RMK PRESFR SLP974 DENSITY ALT 1200FT
  • 010304Z AUTO 10012G17KT 9SM -RA FEW020 BKN095 12/11 A2944 RMK PRESFR SLP978 DENSITY ALT 1200FT
  • 010249Z AUTO 12011KT 9SM -RA SCT020 SCT031 BKN043 BKN055 12/10 A2949 RMK PRESFR SLP995 DENSITY ALT 1100FT
  • 010242Z AUTO 13008KT 8SM -RA FEW019 BKN024 BKN031 BKN042 12/10 A2950 RMK PRESFR SLP999 DENSITY ALT 1100FT
  • 010200Z AUTO 15013G31KT 9SM RA BKN026 BKN060 BKN140 12/10 A2949 RMK SLP992 DENSITY ALT 1200FT
  • 010144Z AUTO 15014G25KT 100V170 9SM -RA SCT060 BKN140 13/10 A2948 RMK PRESRR SLP989 DENSITY ALT 1300FT

Expired Forecast.
CZUL FIR / North America



MET'MAP, your aeronautical weather chart ! - Copyright ORBIFLY December 2007 - Disclaimer

ORBIFLY MET'MAP TEAM :

Programming & Development : Alexandra Zaïnal
Concept & original design : Baudouin d'Aumeries
Assistance for programming : Marc-Olivier Méhu
Technical & hardware support : Manuel Goepfert

Contact : metmap@orbifly.com




SOURCES & CREDITS :

   NOAA